Latest Coastal Weather Observations for Learmonth

IDW60701

Issued at 5:55 am WST Friday 22 August 2014 (issued every 10 minutes, with the page automatically refreshed every 10 minutes)

About coastal observations | Map of coastal stations | Coastal observations for WA | Marine services | Other Formats
Station Details ID: 005007 Name: LEARMONTH AIRPORT Lat: -22.24 Lon: 114.10 Height: 5.0 m
Data from the previous 72 hours. | See also: Recent months at Learmonth
Date/Time
WST
Temp

°C
Wind Pressure Rain
since 9am
mm
Weather Cloud Vis
km
Sea
Height
m
Swell
Dir
 
Speed
knots
Gust
knots
hPa Trend Height
m
Period
s
Dir
22/05:30am 15.3 SSW 7 8 1017.2 - 0.0 - - 10 - - - -
22/05:00am 14.8 SW 7 8 1016.9 - 0.0 - - 10 - - - -
22/04:30am 14.4 SSW 8 8 1016.7 - 0.0 - - 10 - - - -
22/04:00am 15.0 S 6 8 1016.7 - 0.0 - Cloudy 10 - - - -
22/03:30am 13.9 S 7 8 1016.7 - 0.0 - Partly cloudy 10 - - - -
22/03:00am 13.7 S 7 8 1016.7 - 0.0 - - 10 - - - -
22/02:30am 14.7 S 5 6 1017.0 - 0.0 - - 10 - - - -
22/02:00am 15.8 SW 7 8 1017.1 - 0.0 - - 10 - - - -
22/01:30am 14.7 SW 7 8 1017.3 - 0.0 - - 10 - - - -
22/01:00am 15.0 SSW 6 7 1017.4 - 0.0 - - 10 - - - -
22/12:30am 15.7 SW 5 6 1017.4 - 0.0 - - 10 - - - -
22/12:00am 16.0 SW 7 8 1017.5 - 0.0 - - 10 - - - -
 
Date/Time
WST
Temp

°C
Wind Pressure Rain
since 9am
mm
Weather Cloud Vis
km
Sea
Height
m
Swell
Dir
 
Speed
knots
Gust
knots
hPa Trend Height
m
Period
s
Dir
21/11:30pm 16.8 SW 7 8 1017.7 - 0.0 - - 10 - - - -
21/11:00pm 17.5 SW 7 8 1017.8 - 0.0 - - 10 - - - -
21/10:30pm 18.9 SW 7 8 1017.9 - 0.0 - - 10 - - - -
21/10:00pm 18.9 SW 7 9 1017.9 - 0.0 - - 10 - - - -
21/09:30pm 19.2 WSW 7 8 1018.0 - 0.0 - - 10 - - - -
21/09:00pm 19.6 SW 8 9 1017.8 - 0.0 - - 10 - - - -
21/08:30pm 19.9 SW 7 9 1017.6 - 0.0 - - 10 - - - -
21/08:00pm 20.1 SW 7 9 1017.3 - 0.0 - - 10 - - - -
21/07:30pm 20.9 WSW 8 11 1017.0 - 0.0 - - 10 - - - -
21/07:00pm 21.5 WSW 9 11 1016.5 - 0.0 - - 10 - - - -
21/06:30pm 22.1 WSW 9 13 1016.1 - 0.0 - - 10 - - - -
21/06:00pm 23.2 WSW 11 13 1015.6 - 0.0 - - 10 - - - -
21/05:30pm 24.4 W 11 15 1015.4 - 0.0 - - 10 - - - -
21/05:00pm 25.4 W 11 15 1015.1 - 0.0 - Partly cloudy 10 - - - -
21/04:30pm 26.5 W 12 16 1014.9 - 0.0 - Cloudy 10 - - - -
21/04:00pm 26.5 NE 4 7 1014.9 - 0.0 - Partly cloudy 10 - - - -
21/03:30pm 26.1 NNE 6 9 1014.8 - 0.0 - - 10 - - - -
21/03:00pm 26.4 ENE 7 10 1014.8 R 0.0 Fine Mostly clear 30 - - - -
21/02:30pm 26.3 ENE 8 10 1015.0 - 0.0 - - 10 - - - -
21/02:00pm 25.9 ENE 10 12 1015.2 - 0.0 - - 10 - - - -
21/01:30pm 25.1 ENE 10 12 1015.5 - 0.0 - - 10 - - - -
21/01:00pm 25.4 ENE 9 12 1015.9 - 0.0 - Mostly clear 10 - - - -
21/12:30pm 24.3 ENE 8 11 1016.2 - 0.0 - Mostly clear 10 - - - -
21/12:00pm 24.3 ENE 7 9 1016.6 F 0.0 Fine Mostly clear 30 - - - -
21/11:30am 22.9 ENE 7 10 1017.1 - 0.0 - Mostly clear 10 - - - -
21/11:00am 23.2 ENE 7 10 1017.5 - 0.0 - Mostly clear 10 - - - -
21/10:30am 22.3 ENE 7 9 1017.8 - 0.0 - Mostly clear 10 - - - -
21/10:00am 21.9 ESE 5 6 1018.0 - 0.0 - Mostly clear 10 - - - -
21/09:30am 21.5 ESE 4 6 1018.1 - 0.0 - - 10 - - - -
21/09:00am 20.3 ESE 3 5 1018.1 R 0.0 Fine Clear 30 - - - -
21/08:30am 18.6 S 3 5 1017.9 - 0.0 - - 10 - - - -
21/08:00am 16.5 SW 5 7 1017.6 - 0.0 - Mostly clear 10 - - - -
21/07:30am 13.5 WSW 5 6 1017.2 - 0.0 - Mostly clear 10 - - - -
21/07:00am 11.4 WSW 6 7 1016.8 - 0.0 - Mostly clear 10 - - - -
21/06:30am 11.8 WSW 6 7 1016.5 - 0.0 - - 10 - - - -
21/06:00am 11.5 WSW 7 8 1016.3 R 0.0 Fine Clear 30 - - - -
21/05:30am 11.3 SW 8 9 1016.2 - 0.0 - - 10 - - - -
21/05:00am 9.4 S 8 9 1015.9 - 0.0 - - 10 - - - -
21/04:30am 10.3 SSW 5 6 1015.7 - 0.0 - - 10 - - - -
21/04:00am 11.6 SW 4 5 1015.5 - 0.0 - - 10 - - - -
21/03:30am 11.2 SW 3 4 1015.6 - 0.0 - - 10 - - - -
21/03:00am 10.8 SSW 4 4 1015.7 - 0.0 - - 10 - - - -
21/02:30am 10.8 SSW 5 6 1015.8 - 0.0 - - 10 - - - -
21/02:00am 10.8 S 7 7 1015.8 - 0.0 - - 10 - - - -
21/01:30am 11.4 S 6 8 1016.0 - 0.0 - - 10 - - - -
21/01:00am 12.4 S 6 7 1016.3 - 0.0 - - 10 - - - -
21/12:30am 13.2 S 5 6 1016.5 - 0.0 - - 10 - - - -
21/12:00am 15.9 WSW 7 8 1016.5 - 0.0 - - 10 - - - -
 
Date/Time
WST
Temp

°C
Wind Pressure Rain
since 9am
mm
Weather Cloud Vis
km
Sea
Height
m
Swell
Dir
 
Speed
knots
Gust
knots
hPa Trend Height
m
Period
s
Dir
20/11:30pm 16.7 SW 8 9 1016.8 - 0.0 - - 10 - - - -
20/11:00pm 16.7 WSW 8 8 1017.0 - 0.0 - - 10 - - - -
20/10:30pm 17.3 WSW 9 9 1017.1 - 0.0 - - 10 - - - -
20/10:00pm 16.6 WSW 7 9 1017.0 - 0.0 - - 10 - - - -
20/09:30pm 16.5 WSW 8 9 1016.9 - 0.0 - - 10 - - - -
20/09:00pm 16.3 WSW 7 8 1016.7 - 0.0 - - 10 - - - -
20/08:30pm 17.5 WSW 7 8 1016.7 - 0.0 - - 10 - - - -
20/08:00pm 18.2 WSW 6 7 1016.4 - 0.0 - - 10 - - - -
20/07:30pm 18.6 SW 7 9 1016.0 - 0.0 - - 10 - - - -
20/07:00pm 20.4 WSW 8 10 1015.7 - 0.0 - - 10 - - - -
20/06:30pm 21.8 W 9 12 1015.4 - 0.0 - - 10 - - - -
20/06:00pm 23.2 W 10 14 1015.0 - 0.0 - - 10 - - - -
20/05:30pm 24.5 W 11 14 1014.8 - 0.0 - - 10 - - - -
20/05:00pm 23.2 N 6 7 1014.7 - 0.0 - - 10 - - - -
20/04:30pm 23.3 N 8 10 1014.7 - 0.0 - - 10 - - - -
20/04:00pm 24.5 NE 6 8 1014.5 - 0.0 - - 10 - - - -
20/03:30pm 23.7 NNE 9 11 1014.4 - 0.0 - - 10 - - - -
20/03:00pm 24.2 NNE 9 12 1014.6 F 0.0 Fine Clear 30 - - - -
20/02:30pm 25.1 E 10 16 1014.7 - 0.0 - - 10 - - - -
20/02:00pm 26.0 ENE 9 12 1014.9 - 0.0 - - 10 - - - -
20/01:30pm 25.4 E 9 13 1015.3 - 0.0 - - 10 - - - -
20/01:00pm 25.5 NE 6 11 1015.8 - 0.0 - - 10 - - - -
20/12:30pm 25.4 SSW 7 11 1016.6 - 0.0 - - 10 - - - -
20/12:00pm 25.1 SSE 7 12 1017.0 F 0.0 Fine Clear 30 - - - -
20/11:30am 23.7 SSE 7 11 1017.5 - 0.0 - - 10 - - - -
20/11:00am 23.4 S 8 12 1018.1 - 0.0 - - 10 - - - -
20/10:30am 22.0 S 10 14 1018.5 - 0.0 - - 10 - - - -
20/10:00am 21.2 SE 9 12 1018.8 - 0.0 - - 10 - - - -
20/09:30am 20.3 SSE 8 14 1018.8 - 0.0 - - 10 - - - -
20/09:00am 19.7 S 12 15 1019.0 F 0.0 Fine Clear 30 - - - -
20/08:30am 18.8 S 10 15 1019.2 - 0.0 - - 10 - - - -
20/08:00am 16.2 SSW 9 11 1019.1 - 0.0 - - 10 - - - -
20/07:30am 14.2 SSW 9 12 1018.9 - 0.0 - - 10 - - - -
20/07:00am 12.0 SW 8 9 1018.5 - 0.0 - - 10 - - - -
20/06:30am 11.6 WSW 7 9 1018.3 - 0.0 - - 10 - - - -
20/06:00am 11.8 SSW 6 7 1018.1 R 0.0 Fine Clear 30 - - - -
20/05:30am 12.1 SW 6 7 1018.0 - 0.0 - - 10 - - - -
20/05:00am 11.6 SW 6 6 1017.9 - 0.0 - - 10 - - - -
20/04:30am 11.6 SSW 8 9 1017.7 - 0.0 - - 10 - - - -
20/04:00am 13.9 S 11 15 1017.3 - 0.0 - - 10 - - - -
20/03:30am 12.5 SSW 9 10 1017.3 - 0.0 - - 10 - - - -
20/03:00am 12.9 SSW 10 11 1017.2 - 0.0 - - 10 - - - -
20/02:30am 13.4 SSW 10 12 1017.3 - 0.0 - - 10 - - - -
20/02:00am 14.0 SSW 9 11 1017.7 - 0.0 - - 10 - - - -
20/01:30am 14.7 WSW 6 8 1018.0 - 0.0 - - 10 - - - -
20/01:00am 15.3 SW 7 9 1018.3 - 0.0 - - 10 - - - -
20/12:30am 15.8 SSW 9 12 1018.4 - 0.0 - - 10 - - - -
20/12:00am 15.8 SSW 9 10 1018.4 - 0.0 - - 10 - - - -
 
Date/Time
WST
Temp

°C
Wind Pressure Rain
since 9am
mm
Weather Cloud Vis
km
Sea
Height
m
Swell
Dir
 
Speed
knots
Gust
knots
hPa Trend Height
m
Period
s
Dir
19/11:30pm 15.9 SW 8 10 1018.5 - 0.0 - - 10 - - - -
19/11:00pm 16.3 SW 9 11 1018.7 - 0.0 - - 10 - - - -
19/10:30pm 17.1 SSW 9 11 1018.8 - 0.0 - - 10 - - - -
19/10:00pm 17.3 SW 9 11 1018.9 - 0.0 - - 10 - - - -
19/09:30pm 16.7 SSW 8 10 1019.0 - 0.0 - - 10 - - - -
19/09:00pm 17.8 SW 9 11 1018.9 - 0.0 - - 10 - - - -
19/08:30pm 18.6 SW 9 12 1018.8 - 0.0 - - 10 - - - -
19/08:00pm 18.8 SW 9 11 1018.5 - 0.0 - - 10 - - - -
19/07:30pm 19.4 SW 9 11 1018.1 - 0.0 - - 10 - - - -
19/07:00pm 20.7 SW 10 12 1017.6 - 0.0 - - 10 - - - -
19/06:30pm 21.6 SW 11 14 1017.4 - 0.0 - - 10 - - - -
19/06:00pm 22.7 SSW 11 14 1017.0 - 0.0 - - 10 - - - -
19/05:30pm 24.4 SSW 14 19 1017.2 - 0.0 - - 10 - - - -
19/05:00pm 25.6 SSW 14 19 1017.0 - 0.0 - Partly cloudy 10 - - - -
19/04:30pm 24.0 NE 6 9 1016.9 - 0.0 - Partly cloudy 10 - - - -
19/04:00pm 25.4 NE 9 12 1016.8 - 0.0 - Partly cloudy 10 - - - -
19/03:30pm 25.7 ENE 9 12 1016.9 - 0.0 - - 10 - - - -
19/03:00pm 25.8 NE 6 9 1017.1 F 0.0 Fine Mostly clear 30 - - - -
19/02:30pm 25.0 NE 8 11 1017.4 - 0.0 - Mostly clear 10 - - - -
19/02:00pm 24.9 ENE 8 11 1017.6 - 0.0 - Mostly clear 10 - - - -
19/01:30pm 24.7 ENE 9 12 1018.0 - 0.0 - - 10 - - - -
19/01:00pm 24.1 E 10 13 1018.6 - 0.0 - - 10 - - - -
19/12:30pm 24.4 ENE 9 13 1019.2 - 0.0 - - 10 - - - -
19/12:00pm 23.5 E 9 13 1019.6 F 0.0 Fine Clear 30 - - - -
19/11:30am 24.3 SSE 11 15 1020.1 - 0.0 - - 10 - - - -
19/11:00am 23.1 SSE 11 15 1020.6 - 0.0 - - 10 - - - -
19/10:30am 22.1 SE 9 12 1020.9 - 0.0 - - 10 - - - -
19/10:00am 21.2 S 11 15 1021.1 - 0.0 - - 10 - - - -
19/09:30am 19.8 S 9 13 1021.3 - 0.0 - - 10 - - - -
19/09:00am 18.9 S 8 11 1021.0 F 0.0 Fine Clear 30 - - - -
19/08:30am 17.0 S 8 11 1021.2 - 0.0 - - 10 - - - -
19/08:00am 15.5 SSW 7 9 1020.8 - 0.0 - - 10 - - - -
19/07:30am 13.4 SW 7 7 1020.6 - 0.0 - - 10 - - - -
19/07:00am 12.2 SW 7 7 1020.3 - 0.0 - - 10 - - - -
19/06:30am 12.7 SW 6 7 1020.0 - 0.0 - - 10 - - - -
19/06:00am 12.6 SW 7 8 1019.7 R 0.0 Fine Clear 30 - - - -

Other Formats:

Comma delimited format used in spreadsheet applications
http://www.bom.gov.au/fwo/IDW60701/IDW60701.94302.axf

JavaScript Object Notation format (JSON) in row-major order
http://www.bom.gov.au/fwo/IDW60701/IDW60701.94302.json